New Orleans, LA (70195)

3:38 AM CST on March 04, 2015 (GMT -0600)
APRSWXNET New Orleans LA US | Change Station
CLOSE
Current Station
Personal Weather Station
Location: New Orleans, LA
Elevation: 3 ft
Nearby Weather Stations
Active Advisory: Dense Fog Advisory

Elev 3 ft 29.97 °N, 90.09 °W | Updated 37 minutes ago

Clear
Clear
67 °F
Feels Like 67 °F
N
4
Wind Variable Wind from SSE
Gusts 8.0 mph

Today
High -- | Low -- °F
--% Chance of Precip.
Yesterday
High -- | Low -- °F
Precip. -- in
6:23 AM 6:01 PM
Waxing Gibbous, 98% visible
Pressure 29.97 in
Visibility 0.8 miles
Clouds Scattered Clouds 2900 ft
Mostly Cloudy 3500 ft
Dew Point 66 °F
Humidity 95%
Rainfall 0.00 in
Snow Depth Not available.
UV 0 out of 12
Pollen 10.10 out of 12
Air Quality Not available.
Flu Activity Not available.
SPECI KNEW 040934Z AUTO 00000KT 3/4SM BR SCT029 BKN035 17/15 A2997 RMK AO2 T01670150 TSNO

More Conditions Fewer Conditions

Pressure 29.97 in
Visibility 0.8 miles
Clouds Scattered Clouds 2900 ft
Mostly Cloudy 3500 ft
Dew Point 66 °F
Humidity 95%
Rainfall 0.00 in
Snow Depth Not available.
UV 0 out of 12
Pollen 10.10 out of 12
Air Quality Not available.
Flu Activity Not available.
SPECI KNEW 040934Z AUTO 00000KT 3/4SM BR SCT029 BKN035 17/15 A2997 RMK AO2 T01670150 TSNO

More Conditions Fewer Conditions

10-Day Weather Forecast

Almanac

Astronomy

Mar. 04, 2015 Rise Set
Actual Time
Civil Twilight
Nautical Twilight
Astronomical Twilight
Moon
Length of Visible Light
Length of Day
Tomorrow will be .
, % of the Moon is Illuminated

Today's Extremes

State Highs State Lows

Community

WunderPhotos

Upload Photos

1,802,425 photos uploaded!

WunderBlogs® & News

Nearby

Air Quality

  Air Quality AQ Index Pollutant
Not available.

Snow Depth

Station Depth Elevation

Earthquake Activity

City Distance Mag. Time & Date
Minimum magnitude displayed is 2.5.

Coastal Water Temperatures

Place Temperature

Nearby Weather Stations

Dense Fog Advisory
Statement as of 9:32 PM CST on March 03, 2015

... Dense fog advisory remains in effect until 9 am CST
Wednesday...

* visibility... one quarter mile or less at times.

* Duration... tonight through mid morning Wednesday.

* Impacts... reduced visibilities on area roadways could cause
hazardous driving conditions through Wednesday morning.

Precautionary/preparedness actions...

A dense fog advisory means visibilities will frequently be
reduced to less than one quarter mile. If driving... slow down...
use your headlights... and leave plenty of distance ahead of you.